Terminal Aerodrome Forecast
Issued by NWS Wilmington, OH

Current Version | Previous Version | Graphics & Text | Print | Product List | Glossary On
Versions: 1 2 3 4 5 6 7 8 9 10 11 12 13 14 15 16 17 18 19 20
000
FTUS41 KILN 242300
TAFILN
TAF
KILN 242332Z 2500/2524 11008KT P6SM VCSH OVC080
     FM250900 19013G23KT 4SM -SHRA SCT025 OVC035
     FM251200 18014G24KT 3SM -SHRA OVC025
     FM251700 23016G26KT P6SM SCT035 BKN250=

USA.gov is the U.S. government's official web portal to all federal, state and local government web resources and services.